Time;durP1;ratioP1;P1;durP2;ratioP2;P2;SDS_P1;SDS_P2;PMS_P1;PMS_P2;Temp;Humidity;BMP_temperature;BMP_pressure;BME280_temperature;BME280_humidity;BME280_pressure;Samples;Min_cycle;Max_cycle;Signal;HPM_P1;HPM_P2
2023/07/10 00:00:24;;;;;;;3.53;1.60;;;16.40;99.90;;;15.54;91.06;101570.47;5016892;28;20049;-74
2023/07/10 00:02:51;;;;;;;4.30;2.40;;;16.40;99.90;;;15.60;90.97;101570.16;5015085;28;20046;-74
2023/07/10 00:05:21;;;;;;;5.63;2.33;;;16.50;99.90;;;15.68;90.06;101573.25;5016260;28;20030;-74
2023/07/10 00:07:47;;;;;;;4.53;2.20;;;16.50;99.90;;;15.73;90.63;101576.53;5014360;28;20070;-74
2023/07/10 00:10:15;;;;;;;2.95;1.80;;;16.60;99.90;;;15.82;90.83;101584.94;5016593;28;20116;-73
2023/07/10 00:12:44;;;;;;;3.65;1.70;;;16.70;99.90;;;15.92;90.91;101599.44;5014106;28;20384;-74
2023/07/10 00:15:21;;;;;;;3.50;2.08;;;16.80;99.90;;;16.06;90.63;101601.31;5018102;28;20526;-73
2023/07/10 00:17:50;;;;;;;3.17;1.92;;;16.90;99.90;;;16.12;89.83;101604.47;5016128;28;20053;-74
2023/07/10 00:20:23;;;;;;;4.35;1.75;;;16.90;99.90;;;16.15;88.59;101592.81;5017644;28;20051;-74
2023/07/10 00:22:49;;;;;;;4.40;2.10;;;17.00;99.90;;;16.15;88.14;101593.66;5014595;28;20037;-74
2023/07/10 00:25:15;;;;;;;4.50;2.35;;;16.90;99.90;;;16.14;87.23;101599.94;5017059;28;20172;-74
2023/07/10 00:27:46;;;;;;;5.03;2.00;;;16.90;99.90;;;16.12;87.01;101596.50;5019883;28;20448;-74
2023/07/10 00:30:24;;;;;;;2.92;2.03;;;16.90;99.90;;;16.00;88.48;101607.81;5013537;28;20030;-74
2023/07/10 00:32:53;;;;;;;3.45;2.40;;;16.80;99.90;;;15.86;88.71;101619.22;5031425;28;20074;-74
2023/07/10 00:35:21;;;;;;;5.30;2.13;;;16.70;99.90;;;15.74;88.25;101627.84;5012158;28;20029;-74
2023/07/10 00:38:02;;;;;;;3.63;2.38;;;16.60;99.90;;;15.69;87.18;101630.72;5017482;28;20029;-74
2023/07/10 00:40:34;;;;;;;3.65;2.00;;;16.50;99.90;;;15.58;88.63;101623.31;5015010;28;20041;-74
2023/07/10 00:43:09;;;;;;;3.38;2.00;;;16.50;99.90;;;15.54;88.88;101618.25;5014874;28;20037;-74
2023/07/10 00:45:35;;;;;;;4.03;2.30;;;16.40;99.90;;;15.52;88.67;101622.78;5015062;28;20044;-74
2023/07/10 00:48:27;;;;;;;3.72;2.10;;;16.40;99.90;;;15.49;88.99;101625.63;4998461;28;20469;-74
2023/07/10 00:50:54;;;;;;;2.30;1.95;;;16.30;99.90;;;15.44;89.01;101625.84;5008800;28;20026;-74
2023/07/10 00:53:36;;;;;;;3.78;2.10;;;16.30;99.90;;;15.42;88.77;101624.19;5012959;28;20501;-74
2023/07/10 00:56:04;;;;;;;2.88;2.00;;;16.30;99.90;;;15.39;89.02;101625.22;4975867;28;1121022;-74
2023/07/10 00:58:37;;;;;;;4.15;2.42;;;16.30;99.90;;;15.41;89.29;101617.19;5017059;28;20558;-74
2023/07/10 01:01:05;;;;;;;6.93;2.30;;;16.30;99.90;;;15.40;88.96;101621.66;5015050;28;20552;-74
2023/07/10 01:03:32;;;;;;;3.10;1.90;;;16.30;99.90;;;15.39;88.63;101610.16;5018979;28;20172;-74
2023/07/10 01:06:13;;;;;;;2.33;2.00;;;16.30;99.90;;;15.43;88.65;101615.31;5012505;28;20033;-74
2023/07/10 01:08:42;;;;;;;3.25;2.17;;;16.30;99.90;;;15.43;90.12;101613.50;5014123;28;20047;-73
2023/07/10 01:11:08;;;;;;;3.47;2.00;;;16.30;99.90;;;15.46;90.06;101621.31;5016759;28;20029;-74
2023/07/10 01:13:39;;;;;;;3.22;2.30;;;16.30;99.90;;;15.49;89.82;101612.34;5017795;28;20060;-74
2023/07/10 01:16:06;;;;;;;7.28;2.50;;;16.30;99.90;;;15.49;91.02;101610.53;5017139;28;20037;-74
2023/07/10 01:18:32;;;;;;;5.35;2.25;;;16.30;99.90;;;15.50;91.08;101609.59;5013982;28;21293;-74
2023/07/10 01:21:32;;;;;;;6.63;2.60;;;16.30;99.90;;;15.54;90.51;101607.63;5016894;28;20086;-73
2023/07/10 01:24:02;;;;;;;5.32;2.20;;;16.40;99.90;;;15.54;91.28;101605.00;5015061;28;20482;-74
2023/07/10 01:26:29;;;;;;;4.60;2.10;;;16.40;99.90;;;15.58;91.95;101603.88;5015357;28;20037;-75
2023/07/10 01:28:58;;;;;;;3.47;2.15;;;16.40;99.90;;;15.62;91.45;101594.81;5016548;28;20100;-74
2023/07/10 01:31:26;;;;;;;4.10;2.45;;;16.40;99.90;;;15.63;91.77;101596.53;5015566;28;20398;-73
2023/07/10 01:33:56;;;;;;;4.63;2.53;;;16.50;99.90;;;15.63;91.70;101593.00;5014284;28;20040;-74
2023/07/10 01:36:35;;;;;;;3.90;2.08;;;16.50;99.90;;;15.61;91.33;101594.88;5014520;28;20406;-74
2023/07/10 01:39:10;;;;;;;3.20;2.20;;;16.40;99.90;;;15.56;90.51;101592.50;5002195;28;20033;-73
2023/07/10 01:41:39;;;;;;;3.70;2.45;;;16.40;99.90;;;15.54;90.17;101586.41;5014906;28;20116;-73
2023/07/10 01:44:19;;;;;;;2.88;2.00;;;16.40;99.90;;;15.52;91.82;101578.50;4997285;28;20037;-73
2023/07/10 01:46:45;;;;;;;5.38;2.35;;;16.40;99.90;;;15.52;92.01;101582.97;5016675;28;20069;-74
2023/07/10 01:49:10;;;;;;;3.40;2.40;;;16.40;99.90;;;15.53;91.55;101587.34;5015625;28;20078;-74
2023/07/10 01:51:36;;;;;;;;;;;16.40;99.90;;;15.51;91.63;101590.09;5017007;28;20037;-73
2023/07/10 01:54:10;;;;;;;5.40;2.33;;;16.40;99.90;;;15.53;91.00;101585.56;5013599;28;19921;-73
2023/07/10 01:56:36;;;;;;;9.18;2.47;;;16.40;99.90;;;15.57;90.77;101589.75;5012378;28;20045;-72
2023/07/10 01:59:02;;;;;;;4.53;2.03;;;16.40;99.90;;;15.65;90.79;101589.34;5016979;28;20037;-73
2023/07/10 02:01:28;;;;;;;6.70;2.25;;;16.50;99.90;;;15.64;91.05;101587.63;5030769;28;20040;-73
2023/07/10 02:03:54;;;;;;;4.72;2.28;;;16.50;99.90;;;15.65;90.31;101580.50;4999600;28;20120;-75
2023/07/10 02:06:21;;;;;;;1.63;1.52;;;16.50;99.90;;;15.66;90.09;101585.75;5010447;28;20109;-74
2023/07/10 02:08:47;;;;;;;4.07;2.10;;;16.50;99.90;;;15.66;90.12;101601.69;5016064;28;20498;-74
2023/07/10 02:11:14;;;;;;;2.90;2.20;;;16.50;99.90;;;15.67;90.45;101598.06;5012939;28;20034;-74
2023/07/10 02:13:40;;;;;;;2.97;2.50;;;16.50;99.90;;;15.57;90.96;101589.75;5017787;28;20037;-73
2023/07/10 02:16:11;;;;;;;3.15;1.98;;;16.30;99.90;;;15.23;94.32;101574.78;5004781;28;20034;-74
2023/07/10 02:18:37;;;;;;;5.35;2.75;;;16.30;99.90;;;15.24;96.14;101565.88;5014105;28;20045;-74
2023/07/10 02:21:03;;;;;;;3.90;2.40;;;16.30;99.90;;;15.26;97.64;101568.44;5013372;28;20045;-74
2023/07/10 02:23:28;;;;;;;;;;;16.20;99.90;;;15.28;98.15;101567.41;5017016;28;20033;-73
2023/07/10 02:25:55;;;;;;;5.88;2.42;;;16.30;99.90;;;15.36;96.74;101561.72;5016975;28;19920;-73
2023/07/10 02:28:22;;;;;;;3.33;2.20;;;16.30;99.90;;;15.41;95.77;101564.97;5012195;28;20121;-73
2023/07/10 02:30:48;;;;;;;6.45;2.90;;;16.30;99.90;;;15.45;96.10;101560.38;5019028;28;20056;-73
2023/07/10 02:33:14;;;;;;;5.35;2.95;;;16.30;99.90;;;15.39;98.00;101543.81;5018133;28;20279;-73
2023/07/10 02:35:40;;;;;;;5.80;3.08;;;16.30;99.90;;;15.28;100.00;101532.94;5014741;28;20119;-74
2023/07/10 02:38:08;;;;;;;5.75;3.53;;;16.30;99.90;;;15.37;100.00;101531.56;5015069;28;20059;-74
2023/07/10 02:40:34;;;;;;;5.75;3.40;;;16.40;99.90;;;15.52;100.00;101528.09;5016972;28;20456;-74
2023/07/10 02:42:59;;;;;;;5.20;3.55;;;16.40;99.90;;;15.65;100.00;101524.78;5022451;28;20116;-74
2023/07/10 02:45:26;;;;;;;5.53;3.17;;;16.50;99.90;;;15.74;99.43;101526.94;5021361;28;20041;-73
2023/07/10 02:47:52;;;;;;;5.00;2.88;;;16.70;99.90;;;15.87;99.04;101535.94;5020652;28;20026;-73
2023/07/10 02:50:17;;;;;;;7.97;2.83;;;16.70;99.90;;;16.03;98.18;101538.59;5019706;28;20546;-73
2023/07/10 02:52:43;;;;;;;3.63;2.83;;;16.90;99.90;;;16.15;97.10;101537.03;5018051;28;20048;-74
2023/07/10 02:55:09;;;;;;;;;;;16.90;99.90;;;16.20;96.49;101533.19;5017930;28;20120;-74
2023/07/10 02:57:35;;;;;;;5.95;2.83;;;16.90;99.90;;;16.14;98.01;101524.69;5002555;28;19986;-73
2023/07/10 03:00:01;;;;;;;;;;;16.90;99.90;;;16.16;99.16;101526.31;5021283;28;20033;-74
2023/07/10 03:02:26;;;;;;;6.00;3.30;;;17.00;99.90;;;16.18;100.00;101512.97;5017544;28;19921;-74
2023/07/10 03:04:52;;;;;;;;;;;17.00;99.90;;;16.24;100.00;101511.72;4999950;28;20034;-74
2023/07/10 03:07:18;;;;;;;5.93;3.22;;;17.10;99.90;;;16.25;100.00;101524.09;5018135;28;20488;-73
2023/07/10 03:09:44;;;;;;;;;;;17.10;99.90;;;16.35;100.00;101530.59;5003308;28;20038;-73
2023/07/10 03:12:10;;;;;;;9.02;3.45;;;17.20;99.90;;;16.40;99.05;101528.50;5001126;28;19931;-73
2023/07/10 03:14:36;;;;;;;;;;;17.20;99.90;;;16.47;98.43;101526.34;5019649;28;20547;-74
2023/07/10 03:17:03;;;;;;;3.92;3.15;;;17.30;99.90;;;16.53;96.35;101516.19;5014846;28;19974;-73
2023/07/10 03:19:31;;;;;;;4.85;3.00;;;17.30;99.90;;;16.61;95.95;101513.94;5021802;28;20036;-73
2023/07/10 03:21:57;;;;;;;4.90;3.20;;;17.40;99.90;;;16.63;97.59;101511.22;5002028;28;20406;-73
2023/07/10 03:24:24;;;;;;;4.85;2.85;;;17.40;99.90;;;16.65;97.07;101500.47;5022774;28;20402;-73
2023/07/10 03:26:50;;;;;;;5.95;3.00;;;17.50;99.90;;;16.73;96.77;101511.50;5016252;28;20644;-73
2023/07/10 03:29:16;;;;;;;6.20;2.88;;;17.50;99.90;;;16.80;96.08;101504.88;5017264;28;20033;-73
2023/07/10 03:31:43;;;;;;;5.63;3.35;;;17.60;99.90;;;16.87;94.98;101503.59;5018369;28;20037;-73
2023/07/10 03:34:12;;;;;;;6.38;3.40;;;17.60;99.90;;;16.88;95.36;101501.78;5020089;28;20028;-73
2023/07/10 03:36:38;;;;;;;6.53;3.30;;;17.70;99.90;;;16.90;95.99;101492.75;5012831;28;20058;-73
2023/07/10 03:39:05;;;;;;;7.00;2.67;;;17.70;99.90;;;16.95;95.17;101493.34;5014092;28;20046;-73
2023/07/10 03:41:32;;;;;;;6.32;3.20;;;17.80;99.90;;;17.00;93.99;101485.06;5014831;28;20045;-73
2023/07/10 03:43:58;;;;;;;6.78;2.95;;;17.80;99.90;;;17.00;94.90;101480.59;5035320;28;20398;-74
2023/07/10 03:46:24;;;;;;;4.78;3.10;;;17.80;99.90;;;16.89;96.68;101469.78;5019056;28;20095;-75
2023/07/10 03:48:51;;;;;;;16.13;3.78;;;17.70;99.90;;;16.83;97.84;101463.97;5012669;28;20033;-74
2023/07/10 03:51:18;;;;;;;8.23;3.03;;;17.70;99.90;;;16.80;98.50;101473.84;5017432;28;20051;-74
2023/07/10 03:53:46;;;;;;;9.50;3.13;;;17.70;99.90;;;16.87;97.88;101470.78;5016000;28;20041;-73
2023/07/10 03:56:12;;;;;;;6.15;3.00;;;17.80;99.90;;;17.00;96.72;101479.75;5016191;28;20036;-73
2023/07/10 03:58:45;;;;;;;5.15;2.80;;;17.90;99.90;;;17.11;95.46;101481.75;5019472;28;20044;-73
2023/07/10 04:01:12;;;;;;;6.32;2.78;;;17.90;99.90;;;17.16;94.57;101477.84;5016978;28;20499;-73
2023/07/10 04:03:39;;;;;;;8.10;3.15;;;17.90;99.90;;;17.20;94.15;101486.50;5014810;28;20065;-73
2023/07/10 04:06:08;;;;;;;5.22;3.10;;;17.90;99.90;;;17.12;95.72;101475.47;5014696;28;20037;-74
2023/07/10 04:08:38;;;;;;;10.45;3.10;;;18.00;99.90;;;17.12;95.88;101471.00;5018667;28;20053;-74
2023/07/10 04:11:08;;;;;;;6.18;3.33;;;18.00;99.90;;;17.17;95.42;101463.59;5016712;28;20039;-73
2023/07/10 04:13:34;;;;;;;7.47;3.60;;;18.00;99.90;;;17.23;95.02;101465.00;5016267;28;20083;-74
2023/07/10 04:16:04;;;;;;;8.35;3.65;;;18.00;99.90;;;17.21;95.14;101464.22;5015304;28;20037;-74
2023/07/10 04:18:34;;;;;;;10.32;3.17;;;18.10;99.90;;;17.34;94.75;101451.88;5018770;28;20157;-73
2023/07/10 04:21:03;;;;;;;9.32;3.20;;;18.10;99.90;;;17.44;94.48;101457.47;5018945;28;20780;-74
2023/07/10 04:23:29;;;;;;;7.60;3.63;;;18.20;99.90;;;17.54;93.53;101457.75;5013987;28;20653;-74
2023/07/10 04:25:55;;;;;;;11.27;3.22;;;18.30;99.90;;;17.55;93.06;101460.28;5016173;28;20803;-74
2023/07/10 04:28:22;;;;;;;9.50;3.42;;;18.40;99.90;;;17.69;92.91;101451.44;5016933;28;20037;-74
2023/07/10 04:30:48;;;;;;;3.03;2.72;;;18.50;99.90;;;17.78;92.20;101455.28;5018128;28;20033;-73
2023/07/10 04:33:15;;;;;;;4.65;3.10;;;18.50;99.90;;;17.77;92.23;101451.75;5015832;28;20038;-74
2023/07/10 04:35:52;;;;;;;6.82;3.03;;;18.60;99.90;;;17.88;92.14;101452.91;5014423;28;20028;-74
2023/07/10 04:38:17;;;;;;;6.53;3.10;;;18.70;99.90;;;17.99;91.79;101447.72;5018226;28;20678;-74
2023/07/10 04:40:57;;;;;;;6.28;3.22;;;18.80;99.90;;;18.13;91.55;101434.31;4997819;28;20045;-73
2023/07/10 04:43:26;;;;;;;4.45;2.80;;;18.90;99.90;;;18.29;90.25;101438.63;5017646;28;20039;-74
2023/07/10 04:45:56;;;;;;;11.90;2.80;;;19.10;99.90;;;18.36;89.29;101448.78;5018282;28;20041;-74
2023/07/10 04:48:24;;;;;;;6.80;2.90;;;19.10;99.90;;;18.44;89.11;101453.56;4999355;28;20120;-74
2023/07/10 04:50:52;;;;;;;5.03;2.53;;;19.20;99.90;;;18.55;88.52;101469.72;5014018;28;20053;-73
2023/07/10 04:53:19;;;;;;;4.45;2.92;;;19.30;99.90;;;18.61;87.88;101465.75;5016435;28;20040;-74
2023/07/10 04:55:48;;;;;;;5.05;2.85;;;19.40;99.90;;;18.80;87.18;101473.38;5000627;28;20042;-73
2023/07/10 04:58:15;;;;;;;7.75;3.35;;;19.50;99.90;;;19.02;86.04;101475.41;5017828;28;20044;-74
2023/07/10 05:00:41;;;;;;;5.47;3.00;;;19.70;99.90;;;19.19;85.32;101480.38;5013316;28;20053;-73
2023/07/10 05:03:07;;;;;;;6.55;2.70;;;19.90;99.90;;;19.34;84.40;101488.28;5015050;28;20037;-74
2023/07/10 05:05:33;;;;;;;4.40;3.03;;;20.00;99.90;;;19.53;83.24;101485.16;5012123;28;20037;-74
2023/07/10 05:08:00;;;;;;;3.80;2.60;;;20.20;99.90;;;19.72;82.31;101479.31;5018763;28;20033;-76
2023/07/10 05:10:27;;;;;;;7.03;2.92;;;20.30;99.90;;;19.87;81.74;101479.06;5017104;28;20124;-74
2023/07/10 05:12:53;;;;;;;7.07;2.88;;;20.50;99.90;;;20.13;80.86;101481.63;5014776;28;20034;-74
2023/07/10 05:15:22;;;;;;;18.95;3.20;;;20.80;99.90;;;20.71;78.88;101494.22;5015157;28;20061;-74
2023/07/10 05:17:48;;;;;;;7.70;3.17;;;21.10;99.90;;;20.74;78.00;101494.00;5016250;28;20055;-74
2023/07/10 05:20:14;;;;;;;8.55;3.00;;;21.10;99.90;;;20.63;78.04;101490.31;5017865;28;20148;-74
2023/07/10 05:22:41;;;;;;;4.13;2.70;;;21.20;99.90;;;20.64;78.05;101489.34;5017950;28;20044;-74
2023/07/10 05:25:09;;;;;;;11.57;3.03;;;21.20;99.90;;;20.52;78.60;101484.03;5014902;28;20115;-73
2023/07/10 05:27:35;;;;;;;13.15;3.30;;;21.10;99.90;;;20.46;78.83;101475.53;5016466;28;20037;-73
2023/07/10 05:30:01;;;;;;;6.30;2.83;;;21.10;99.90;;;20.45;78.92;101483.66;5016535;28;20193;-73
2023/07/10 05:32:26;;;;;;;6.15;3.00;;;21.10;99.90;;;20.45;78.97;101489.88;5016851;28;20033;-74
2023/07/10 05:34:52;;;;;;;8.07;3.35;;;21.10;99.90;;;20.46;79.14;101496.94;5021448;28;20126;-74
2023/07/10 05:37:18;;;;;;;8.73;2.88;;;21.10;99.90;;;20.48;79.29;101515.53;5013781;28;20125;-74
2023/07/10 05:39:44;;;;;;;14.27;3.30;;;21.10;99.90;;;20.49;79.09;101514.56;5015499;28;20041;-74
2023/07/10 05:42:11;;;;;;;6.65;2.60;;;21.20;99.90;;;20.51;78.67;101506.44;5015904;28;20397;-73
2023/07/10 05:44:37;;;;;;;7.55;2.70;;;21.20;99.90;;;20.56;78.47;101507.78;5016686;28;20038;-74
2023/07/10 05:47:03;;;;;;;6.32;2.85;;;21.20;99.90;;;20.46;78.48;101502.28;5016357;28;20116;-74
2023/07/10 05:49:31;;;;;;;6.32;3.08;;;21.20;99.90;;;20.45;78.36;101505.06;5015100;28;20510;-73
2023/07/10 05:51:57;;;;;;;4.85;2.60;;;21.20;99.90;;;20.50;78.43;101500.22;5014204;28;20611;-74
2023/07/10 05:54:23;;;;;;;7.30;2.72;;;21.20;99.90;;;20.49;78.32;101499.34;5016849;28;20065;-74
2023/07/10 05:56:48;;;;;;;6.13;2.75;;;21.20;99.90;;;20.52;78.22;101509.00;5015882;28;20035;-73
2023/07/10 05:59:15;;;;;;;7.65;2.67;;;21.20;99.90;;;20.55;78.41;101514.09;5014742;28;21305;-73
2023/07/10 06:01:41;;;;;;;11.55;3.22;;;21.20;99.90;;;20.53;78.91;101518.72;5013891;28;20033;-74
2023/07/10 06:04:07;;;;;;;9.57;3.08;;;21.20;99.90;;;20.53;79.07;101518.72;5013969;28;20052;-73
2023/07/10 06:06:33;;;;;;;14.57;3.20;;;21.10;99.90;;;20.51;79.45;101509.94;5016147;28;20034;-73
2023/07/10 06:08:59;;;;;;;17.35;2.70;;;21.20;99.90;;;20.53;79.12;101510.69;5012343;28;20033;-72
2023/07/10 06:11:25;;;;;;;7.63;2.78;;;21.20;99.90;;;20.55;79.24;101513.25;5014001;28;20398;-73
2023/07/10 06:13:51;;;;;;;7.88;2.97;;;21.20;99.90;;;20.56;79.21;101501.56;5016476;28;20044;-75
2023/07/10 06:16:17;;;;;;;6.30;2.60;;;21.20;99.90;;;20.48;79.59;101505.69;5019835;28;20030;-73
2023/07/10 06:18:42;;;;;;;9.23;3.00;;;21.20;99.90;;;20.48;79.61;101491.47;5022382;28;20033;-73
2023/07/10 06:21:10;;;;;;;8.45;2.55;;;21.20;99.90;;;20.47;79.88;101487.94;5019003;28;20048;-73
2023/07/10 06:23:36;;;;;;;8.23;2.78;;;21.10;99.90;;;20.27;81.20;101480.56;5017009;28;20048;-73
2023/07/10 06:26:03;;;;;;;11.95;3.10;;;21.00;99.90;;;20.21;82.76;101479.19;5017746;28;20064;-74
2023/07/10 06:28:32;;;;;;;10.98;3.00;;;21.00;99.90;;;20.23;83.04;101471.06;5018725;28;20088;-73
2023/07/10 06:31:02;;;;;;;6.43;2.72;;;20.90;99.90;;;20.23;83.44;101485.28;5016051;28;20030;-74
2023/07/10 06:33:30;;;;;;;8.77;3.35;;;21.00;99.90;;;20.32;83.21;101485.56;4993610;28;20034;-73
2023/07/10 06:35:57;;;;;;;7.65;3.10;;;21.00;99.90;;;20.37;82.99;101486.94;4996115;28;20087;-73
2023/07/10 06:38:23;;;;;;;10.57;3.08;;;21.00;99.90;;;20.36;83.89;101479.88;5020199;28;20033;-73
2023/07/10 06:40:50;;;;;;;5.35;3.33;;;21.00;99.90;;;20.14;85.53;101471.78;5019426;28;20087;-72
2023/07/10 06:43:20;;;;;;;6.30;3.13;;;20.90;99.90;;;20.16;86.08;101467.16;5014298;28;20040;-73
2023/07/10 06:45:47;;;;;;;5.60;3.20;;;20.90;99.90;;;20.17;85.97;101468.84;5018864;28;20103;-73
2023/07/10 06:48:13;;;;;;;8.00;3.70;;;20.90;99.90;;;20.13;86.42;101467.38;5018690;28;20044;-73
2023/07/10 06:50:39;;;;;;;7.22;3.45;;;20.90;99.90;;;20.10;86.77;101465.78;5020349;28;20045;-73
2023/07/10 06:53:05;;;;;;;9.32;4.25;;;20.80;99.90;;;20.12;86.77;101455.84;5018229;28;20131;-74
2023/07/10 06:55:31;;;;;;;7.20;3.83;;;20.90;99.90;;;20.18;87.00;101450.03;5018295;28;20073;-75
2023/07/10 06:57:58;;;;;;;6.22;3.78;;;20.90;99.90;;;20.22;86.72;101451.50;5015491;28;20083;-73
2023/07/10 07:00:24;;;;;;;7.63;3.80;;;20.90;99.90;;;20.30;86.32;101442.88;5019946;28;20065;-74
2023/07/10 07:02:50;;;;;;;8.23;3.83;;;21.00;99.90;;;20.42;86.08;101443.78;5021445;28;21625;-73
2023/07/10 07:05:16;;;;;;;8.68;3.90;;;21.10;99.90;;;20.57;85.56;101444.44;5013582;28;20367;-73
2023/07/10 07:07:42;;;;;;;7.20;3.70;;;21.20;99.90;;;20.71;86.10;101446.91;5015605;28;20124;-73
2023/07/10 07:10:13;;;;;;;13.25;3.72;;;21.40;99.90;;;20.97;85.17;101454.69;5014516;28;20034;-73
2023/07/10 07:12:42;;;;;;;7.97;3.53;;;21.60;99.90;;;21.13;83.18;101451.69;5019239;28;20060;-74
2023/07/10 07:15:11;;;;;;;7.57;3.78;;;21.80;99.90;;;21.31;82.25;101456.38;5017048;28;20616;-73
2023/07/10 07:17:37;;;;;;;6.72;3.45;;;21.90;99.90;;;21.38;81.02;101462.13;5017539;28;20038;-73
2023/07/10 07:20:04;;;;;;;6.45;3.63;;;22.00;99.90;;;21.25;80.55;101446.19;5017952;28;20546;-73
2023/07/10 07:22:30;;;;;;;6.90;3.90;;;22.00;99.90;;;21.48;80.02;101446.19;5014312;28;20037;-74
2023/07/10 07:24:56;;;;;;;7.35;3.38;;;22.10;99.90;;;21.52;79.54;101452.16;5017024;28;20029;-74
2023/07/10 07:27:22;;;;;;;11.57;3.45;;;22.20;99.90;;;21.54;79.41;101452.88;5003256;28;20066;-74
2023/07/10 07:29:51;;;;;;;13.40;4.00;;;22.30;99.90;;;21.64;78.90;101445.75;5018699;28;20121;-75
2023/07/10 07:32:37;;;;;;;6.95;3.55;;;22.30;99.90;;;21.45;79.44;101425.00;5014562;28;20044;-75
2023/07/10 07:35:03;;;;;;;9.40;3.37;;;22.20;99.90;;;21.56;79.71;101432.16;4927648;28;20075;-75
2023/07/10 07:37:29;;;;;;;6.93;3.90;;;22.20;99.90;;;21.49;80.22;101424.63;4916278;28;20039;-75
2023/07/10 07:39:57;;;;;;;9.13;3.58;;;22.10;99.90;;;21.34;80.73;101417.81;4916839;28;20043;-75
2023/07/10 07:42:23;;;;;;;6.05;3.22;;;22.20;99.90;;;21.41;80.38;101416.38;4931444;28;20054;-75
2023/07/10 07:44:49;;;;;;;7.63;3.35;;;22.00;99.90;;;21.21;81.77;101411.72;4932405;28;20109;-75
2023/07/10 07:47:15;;;;;;;7.97;3.28;;;21.90;99.90;;;21.01;83.64;101394.59;4934495;28;20189;-74
2023/07/10 07:49:41;;;;;;;6.72;3.13;;;21.90;99.90;;;21.06;83.79;101393.25;4931767;28;20051;-75
2023/07/10 07:52:07;;;;;;;7.97;3.20;;;21.90;99.90;;;21.13;83.34;101385.59;4948564;28;20118;-75
2023/07/10 07:54:33;;;;;;;7.20;3.45;;;21.90;99.90;;;21.25;83.00;101386.41;4929652;28;20045;-75
2023/07/10 07:56:58;;;;;;;4.13;2.90;;;22.00;99.90;;;21.42;82.14;101385.91;4916088;28;20624;-75
2023/07/10 07:59:24;;;;;;;;;;;22.00;99.90;;;21.42;82.61;101380.53;4932291;28;20066;-75
2023/07/10 08:01:51;;;;;;;12.32;3.20;;;22.20;99.90;;;21.61;82.47;101379.03;4927841;28;19914;-75
2023/07/10 08:04:18;;;;;;;6.63;3.20;;;22.30;99.90;;;21.92;81.64;101380.88;4916301;28;20106;-75
2023/07/10 08:06:47;;;;;;;5.10;3.08;;;22.50;99.90;;;22.07;80.99;101377.84;4929357;28;20069;-75
2023/07/10 08:09:13;;;;;;;13.05;3.20;;;22.80;99.90;;;22.55;79.23;101384.50;4919120;28;20046;-75
2023/07/10 08:11:38;;;;;;;4.10;2.97;;;23.10;99.90;;;22.99;77.01;101383.28;4954792;28;20068;-75
2023/07/10 08:14:04;;;;;;;8.82;2.83;;;23.40;99.90;;;23.12;76.18;101391.16;5016578;28;20048;-75
2023/07/10 08:16:30;;;;;;;7.47;3.25;;;23.80;99.90;;;23.90;73.29;101402.88;5000929;28;20037;-75
2023/07/10 08:18:56;;;;;;;7.22;3.08;;;24.50;99.90;;;24.95;69.80;101404.63;5013692;28;20045;-75
2023/07/10 08:21:22;;;;;;;7.85;3.20;;;25.10;99.90;;;25.09;67.38;101399.75;5020475;28;20045;-75
2023/07/10 08:23:47;;;;;;;6.72;3.20;;;25.40;99.90;;;25.40;66.86;101407.53;5015517;28;20393;-75
2023/07/10 08:26:14;;;;;;;9.43;2.60;;;26.00;99.90;;;26.42;63.93;101404.41;5018498;28;20038;-77
2023/07/10 08:28:40;;;;;;;7.72;2.78;;;26.00;99.90;;;26.50;62.26;101406.28;5015976;28;20433;-76
2023/07/10 08:31:06;;;;;;;8.48;3.00;;;26.80;99.90;;;27.05;60.66;101400.53;5014780;28;20634;-75
2023/07/10 08:33:32;;;;;;;5.25;2.80;;;27.10;99.90;;;27.05;59.14;101402.41;5017109;28;20036;-75
2023/07/10 08:36:06;;;;;;;6.68;2.72;;;27.10;99.90;;;26.47;58.96;101393.13;5013254;28;20036;-76
2023/07/10 08:38:35;;;;;;;6.03;3.08;;;27.00;99.90;;;26.47;59.84;101387.72;4998288;28;20092;-75
2023/07/10 08:41:14;;;;;;;6.05;3.13;;;26.90;99.90;;;26.65;59.25;101384.97;5015547;28;20060;-75
2023/07/10 08:43:41;;;;;;;2.78;2.47;;;27.10;99.90;;;26.99;57.79;101385.81;5015278;28;20034;-75
2023/07/10 08:46:21;;;;;;;4.15;2.47;;;27.50;99.90;;;27.65;56.19;101388.72;5017156;28;20201;-76
2023/07/10 08:49:01;;;;;;;6.18;2.78;;;27.90;99.90;;;28.08;55.21;101397.56;5015549;28;20505;-75
2023/07/10 08:51:57;;;;;;;5.90;2.70;;;28.40;99.90;;;28.68;52.18;101398.97;5014757;28;20068;-75
2023/07/10 08:54:23;;;;;;;4.20;2.75;;;28.70;98.90;;;28.58;51.30;101398.34;5012412;28;20037;-75
2023/07/10 08:57:34;;;;;;;5.40;2.80;;;29.00;99.10;;;28.93;49.57;101402.44;5017144;28;20033;-75
2023/07/10 09:00:10;;;;;;;4.70;2.95;;;29.10;97.90;;;28.79;49.18;101411.31;4956852;28;20066;-75
2023/07/10 09:02:58;;;;;;;5.55;2.92;;;29.10;97.20;;;28.92;50.58;101402.63;4956060;28;20181;-75
2023/07/10 09:05:32;;;;;;;6.57;3.08;;;29.30;96.60;;;29.02;47.96;101405.97;4953512;28;20163;-75
2023/07/10 09:08:06;;;;;;;4.32;3.03;;;29.50;97.80;;;29.56;48.38;101418.75;4973047;28;20134;-76
2023/07/10 09:10:48;;;;;;;4.60;3.38;;;29.80;96.40;;;29.75;46.04;101417.47;4957302;28;20042;-76
2023/07/10 09:13:32;;;;;;;7.00;3.20;;;29.90;95.20;;;29.71;46.27;101416.16;4941844;28;20046;-76
2023/07/10 09:15:59;;;;;;;6.40;3.35;;;29.90;95.60;;;29.81;46.54;101414.03;4966596;28;20047;-75
2023/07/10 09:18:43;;;;;;;6.53;2.80;;;29.80;93.90;;;29.35;45.24;101419.38;4975667;28;20042;-75
2023/07/10 09:21:19;;;;;;;8.55;3.20;;;29.80;95.30;;;29.72;46.05;101417.81;4954690;28;20614;-76
2023/07/10 09:23:50;;;;;;;8.77;3.08;;;30.00;94.40;;;29.85;45.56;101424.34;4973693;28;20061;-75
2023/07/10 09:26:27;;;;;;;8.65;3.00;;;29.80;93.60;;;29.26;46.38;101418.59;4974256;28;20070;-75
2023/07/10 09:29:37;;;;;;;4.70;3.40;;;29.80;94.10;;;29.33;45.00;101418.72;4968164;28;20043;-75
2023/07/10 09:32:20;;;;;;;6.50;3.22;;;29.70;93.80;;;29.39;46.29;101416.13;4916145;29;20544;-76
2023/07/10 09:34:58;;;;;;;4.93;3.17;;;29.80;93.80;;;29.56;45.26;101425.03;4934070;29;20090;-75
2023/07/10 09:38:03;;;;;;;6.95;3.28;;;30.00;92.90;;;29.51;44.25;101427.44;4918561;29;20714;-75
2023/07/10 09:40:50;;;;;;;5.07;3.17;;;29.70;93.50;;;28.96;45.73;101412.97;4908237;29;20509;-75
2023/07/10 09:43:27;;;;;;;5.80;3.60;;;29.30;94.10;;;28.55;47.30;101406.81;4892429;29;20055;-76
2023/07/10 09:45:58;;;;;;;10.10;3.28;;;29.00;94.10;;;28.33;47.25;101402.94;4903064;29;20028;-75
2023/07/10 09:48:37;;;;;;;6.95;4.07;;;28.90;94.10;;;28.39;47.08;101404.97;4909409;29;20055;-75
2023/07/10 09:51:12;;;;;;;7.70;3.40;;;28.80;93.90;;;28.31;47.02;101413.94;4880006;29;20095;-75
2023/07/10 09:53:45;;;;;;;9.23;3.80;;;28.70;94.20;;;28.15;46.92;101419.38;4896702;29;20082;-75
2023/07/10 09:56:29;;;;;;;5.32;3.55;;;28.50;94.30;;;27.89;47.26;101414.97;4896850;29;20087;-76
2023/07/10 09:58:56;;;;;;;13.50;3.67;;;28.20;94.60;;;27.44;48.55;101413.53;4893566;29;20229;-75
2023/07/10 10:01:34;;;;;;;6.60;3.40;;;28.00;95.30;;;27.31;49.49;101423.97;4892735;29;20051;-75
2023/07/10 10:04:03;;;;;;;13.05;3.65;;;27.80;95.90;;;27.10;50.22;101427.91;4910051;29;20066;-76
2023/07/10 10:06:31;;;;;;;7.32;3.42;;;27.60;96.50;;;26.94;50.56;101423.28;4908941;29;20047;-75
2023/07/10 10:09:13;;;;;;;24.90;4.03;;;27.50;96.80;;;26.79;51.32;101433.84;4928373;28;20034;-76
2023/07/10 10:11:46;;;;;;;7.47;3.33;;;27.30;96.80;;;26.52;51.25;101432.16;4938398;28;20035;-75
2023/07/10 10:14:25;;;;;;;7.78;3.70;;;27.10;96.80;;;26.30;51.58;101422.72;4947690;28;20431;-75
2023/07/10 10:17:05;;;;;;;6.00;3.55;;;26.90;97.30;;;26.05;52.64;101426.22;4970653;28;20032;-75
2023/07/10 10:19:43;;;;;;;6.47;4.10;;;26.60;99.00;;;25.86;55.17;101424.53;5016528;28;20112;-75
2023/07/10 10:22:16;;;;;;;11.27;3.72;;;26.40;99.90;;;25.63;57.00;101422.25;5018014;28;20029;-75